Aeroporto :
LOGIN :

Iscrizione | Disclaimer

   EN    FR    IT 

 










Sommario :    VFR   VFR Marginale   IFR   IFR Intensivo   IFR Molto Intensivo
Visibilità : 
Base nubi : 
>= 8 km
>= 3000ft
5 / 8 km
1000 / 3000 ft
1500m / 5 km
500 / 1000 ft
800 / 1500m
200 / 500 ft
< 800m
< 200 ft
Simboli :   Temporali  Nebbia  Neve Forte  Precipitazioni Forti  Vento > 20 kt
SIGMETs :   Varie  Temporali  Ghiacco  Turbolenza  Onda orograficha  Ceneri Vulcaniche






- Altitudine del aeroporto : 20 ft
- Codice IATA : LSI


EGPB - Sumburgh

ULTIMO METAR :
  • 061720Z 36004KT 9999 SCT023 05/02 Q0991

METARs OBSOLETI :
  • 061650Z 34005KT 300V010 9999 VCSH FEW018 SCT027 05/02 Q0990
  • 061620Z 36006KT 9999 VCSH FEW016 SCT030 05/02 Q0990
  • 061550Z 34006KT 9999 FEW016 SCT030 06/03 Q0989
  • 061520Z 34004KT 9999 FEW015 SCT028 05/02 Q0989
  • 061450Z 32005KT 9999 FEW015 SCT028 06/03 Q0988

TAF TAF EGPB
Valido dal 06 a 18 ore il 07 a 03 ore UTC


061659Z 0618/0703 32008KT 9999 FEW015 BKN025
PROB30
TEMPO 0618/0703 4000 SHRAGS BKN008



MetMap, La meteo Aeronautica in un colpo d'occhio ! - Copyright ORBIFLY Dicembre 2007 - Disclaimer

ORBIFLY MET'MAP TEAM :

Programmazione e sviluppo : Alexandra Zaïnal
Concezione : Baudouin d'Aumeries
Aiuto per la programmazione : Marc-Olivier Méhu
Supporto tecnico e logistico : Manuel Goepfert
Aiuto per la traduzione : Arnaldo La Scala

Contatto : metmap@orbifly.com




FONTI E CREDITI :

   NOAA